Weather at Hammonton Municipal Airport

Public forecast

Using degrees Fahrenheit for public forecast. Weather courtesy of forecast.io.

Closest aviation weather report (METAR) to Hammonton Municipal Airport

Closest report is Atlantic City International Airport, 15.1 nm (28.0 km) SSE. Retrieved 2022/01/18 17:54 UTC (35 minutes ago):

KACY 181754Z 30020G30KT 10SM OVC060 04/M08 A2996 RMK AO2 PK WND 30036/1718 SLP147 T00391078 10050 20006 51012

Closest aviation forecast (TAF) to Hammonton Municipal Airport

Closest forecast is Atlantic City International Airport, 15.1 nm (28.0 km) SSE. Retrieved 2022/01/18 18:36 UTC (0 seconds ago):

TAF KACY 181734Z 1818/1918 29016G26KT P6SM BKN060 TEMPO 1818/1821 -SHSN FM182200 28010KT P6SM SCT060 FM190100 VRB03KT P6SM BKN200 FM191100 19008KT P6SM BKN200 WS020/22040KT FM191400 21014G24KT P6SM BKN200